createdAt,value
2018-04-18T00:00:47.481Z,8.95
2018-04-18T00:03:13.404Z,8.95
2018-04-18T00:05:39.305Z,8.88
2018-04-18T00:08:05.377Z,8.87
2018-04-18T00:10:31.368Z,8.85
2018-04-18T00:12:57.260Z,8.91
2018-04-18T00:15:23.248Z,8.92
2018-04-18T00:17:49.132Z,8.90
2018-04-18T00:20:14.991Z,8.89
2018-04-18T00:22:41.356Z,8.88
2018-04-18T00:25:07.211Z,8.84
2018-04-18T00:27:33.127Z,8.79
2018-04-18T00:29:59.066Z,8.79
2018-04-18T00:32:24.948Z,8.74
2018-04-18T00:34:50.929Z,8.72
2018-04-18T00:37:17.092Z,8.65
2018-04-18T00:39:42.968Z,8.64
2018-04-18T00:42:08.861Z,8.59
2018-04-18T00:44:34.802Z,8.57
2018-04-18T00:47:00.772Z,8.55
2018-04-18T00:49:26.650Z,8.57
2018-04-18T00:51:52.602Z,8.54
2018-04-18T00:54:18.451Z,8.47
2018-04-18T00:56:44.312Z,8.41
2018-04-18T00:59:10.308Z,8.39
2018-04-18T01:01:36.175Z,8.36
2018-04-18T01:04:02.135Z,8.35
2018-04-18T01:06:28.203Z,8.35
2018-04-18T01:08:54.071Z,8.34
2018-04-18T01:11:20.031Z,8.29
2018-04-18T01:13:45.947Z,8.27
2018-04-18T01:16:11.939Z,8.26
2018-04-18T01:18:37.807Z,8.21
2018-04-18T01:21:03.736Z,8.20
2018-04-18T01:23:29.706Z,8.19
2018-04-18T01:25:55.570Z,8.19
2018-04-18T01:28:21.848Z,8.18
2018-04-18T01:30:47.718Z,8.17
2018-04-18T01:33:13.599Z,8.13
2018-04-18T01:35:39.598Z,8.10
2018-04-18T01:38:05.456Z,8.10
2018-04-18T01:40:31.407Z,8.07
2018-04-18T01:42:57.356Z,8.05
2018-04-18T01:45:23.240Z,8.04
2018-04-18T01:47:49.222Z,8.02
2018-04-18T01:50:15.158Z,8.02
2018-04-18T01:52:41.118Z,7.98
2018-04-18T01:55:06.999Z,7.96
2018-04-18T01:57:32.910Z,7.95
2018-04-18T01:59:58.888Z,7.96
2018-04-18T02:02:24.763Z,7.96
2018-04-18T02:04:50.720Z,7.93
2018-04-18T02:07:16.579Z,7.88
2018-04-18T02:09:42.427Z,7.84
2018-04-18T02:12:08.435Z,7.81
2018-04-18T02:14:34.308Z,7.79
2018-04-18T02:17:00.228Z,7.76
2018-04-18T02:19:26.140Z,7.77
2018-04-18T02:21:52.026Z,7.74
2018-04-18T02:24:17.967Z,7.72
2018-04-18T02:26:43.876Z,7.70
2018-04-18T02:29:09.812Z,7.68
2018-04-18T02:31:35.688Z,7.68
2018-04-18T02:34:01.624Z,7.68
2018-04-18T02:36:28.393Z,7.68
2018-04-18T02:38:54.272Z,7.70
2018-04-18T02:41:20.273Z,7.67
2018-04-18T02:43:46.149Z,7.67
2018-04-18T02:46:12.031Z,7.67
2018-04-18T02:48:38.059Z,7.65
2018-04-18T02:51:03.935Z,7.65
2018-04-18T02:53:29.857Z,7.64
2018-04-18T02:55:55.800Z,7.60
2018-04-18T02:58:21.665Z,7.60
2018-04-18T03:00:47.618Z,7.60
2018-04-18T03:03:13.563Z,7.61
2018-04-18T03:05:39.491Z,7.60
2018-04-18T03:08:05.364Z,7.60
2018-04-18T03:10:31.333Z,7.58
2018-04-18T03:12:57.369Z,7.58
2018-04-18T03:15:23.224Z,7.58
2018-04-18T03:17:49.179Z,7.58
2018-04-18T03:20:15.071Z,7.53
2018-04-18T03:22:40.943Z,7.52
2018-04-18T03:25:06.936Z,7.53
2018-04-18T03:27:32.808Z,7.48
2018-04-18T03:29:58.738Z,7.44
2018-04-18T03:32:24.660Z,7.44
2018-04-18T03:34:50.540Z,7.42
2018-04-18T03:37:16.492Z,7.43
2018-04-18T03:39:42.708Z,7.41
2018-04-18T03:42:08.631Z,7.41
2018-04-18T03:44:34.507Z,7.39
2018-04-18T03:47:00.472Z,7.40
2018-04-18T03:49:26.437Z,7.42
2018-04-18T03:51:52.309Z,7.38
2018-04-18T03:54:18.277Z,7.38
2018-04-18T03:56:44.148Z,7.39
2018-04-18T03:59:10.012Z,7.39
2018-04-18T04:01:36.034Z,7.36
2018-04-18T04:04:01.893Z,7.39
2018-04-18T04:06:27.835Z,7.36
2018-04-18T04:08:53.760Z,7.37
2018-04-18T04:11:19.636Z,7.34
2018-04-18T04:13:45.612Z,7.34
2018-04-18T04:16:24.021Z,7.35
2018-04-18T04:19:02.356Z,7.37
2018-04-18T04:21:40.744Z,7.40
2018-04-18T04:24:19.731Z,7.41
2018-04-18T04:26:45.676Z,7.42
2018-04-18T04:29:11.594Z,7.45
2018-04-18T04:31:37.516Z,7.47
2018-04-18T04:34:03.407Z,7.53
2018-04-18T04:36:29.397Z,7.55
2018-04-18T04:38:55.271Z,7.64
2018-04-18T04:41:21.236Z,7.70
2018-04-18T04:43:47.146Z,7.75
2018-04-18T04:46:13.019Z,7.81
2018-04-18T04:48:39.037Z,7.87
2018-04-18T04:51:04.923Z,7.88
2018-04-18T04:53:30.852Z,7.91
2018-04-18T04:55:56.791Z,7.95
2018-04-18T04:58:22.743Z,8.00
2018-04-18T05:00:49.638Z,8.02
2018-04-18T05:03:15.707Z,8.06
2018-04-18T05:05:41.711Z,8.13
2018-04-18T05:08:07.593Z,8.26
2018-04-18T05:10:34.372Z,8.35
2018-04-18T05:13:00.363Z,8.51
2018-04-18T05:15:26.236Z,8.59
2018-04-18T05:17:52.268Z,8.71
2018-04-18T05:20:18.143Z,8.80
2018-04-18T05:22:44.011Z,8.93
2018-04-18T05:25:10.028Z,9.08
2018-04-18T05:27:35.903Z,9.20
2018-04-18T05:30:01.824Z,9.37
2018-04-18T05:32:28.600Z,9.50
2018-04-18T05:34:54.473Z,9.66
2018-04-18T05:37:20.447Z,9.72
2018-04-18T05:39:46.703Z,9.85
2018-04-18T05:42:12.625Z,10.04
2018-04-18T05:44:39.566Z,10.21
2018-04-18T05:47:05.478Z,10.32
2018-04-18T05:49:31.428Z,10.43
2018-04-18T05:51:57.403Z,10.52
2018-04-18T05:54:23.443Z,10.62
2018-04-18T05:56:49.320Z,10.75
2018-04-18T05:59:15.225Z,10.94
2018-04-18T06:01:41.251Z,11.05
2018-04-18T06:04:07.252Z,11.22
2018-04-18T06:06:34.252Z,11.42
2018-04-18T06:09:00.163Z,11.55
2018-04-18T06:11:26.038Z,11.75
2018-04-18T06:13:52.136Z,11.96
2018-04-18T06:16:18.391Z,12.14
2018-04-18T06:18:44.303Z,12.41
2018-04-18T06:21:10.689Z,12.52
2018-04-18T06:23:37.165Z,12.59
2018-04-18T06:26:03.201Z,12.63
2018-04-18T06:28:29.489Z,12.73
2018-04-18T06:30:56.858Z,12.83
2018-04-18T06:33:23.195Z,12.96
2018-04-18T06:35:49.827Z,13.13
2018-04-18T06:38:17.252Z,13.23
2018-04-18T06:40:43.215Z,13.33
2018-04-18T06:43:09.228Z,13.49
2018-04-18T06:45:35.712Z,13.61
2018-04-18T06:48:01.671Z,13.78
2018-04-18T06:50:27.812Z,13.83
2018-04-18T06:52:54.225Z,14.14
2018-04-18T06:55:20.930Z,14.31
2018-04-18T06:57:47.262Z,14.42
2018-04-18T07:00:13.668Z,14.61
2018-04-18T07:02:39.989Z,14.63
2018-04-18T07:05:06.230Z,14.79
2018-04-18T07:07:32.211Z,14.99
2018-04-18T07:09:58.084Z,15.16
2018-04-18T07:12:23.948Z,15.26
2018-04-18T07:14:49.985Z,15.36
2018-04-18T07:17:16.898Z,15.55
2018-04-18T07:19:42.835Z,15.68
2018-04-18T07:22:08.870Z,15.80
2018-04-18T07:24:34.817Z,16.03
2018-04-18T07:27:00.804Z,16.20
2018-04-18T07:29:26.798Z,16.25
2018-04-18T07:31:52.747Z,16.45
2018-04-18T07:34:18.661Z,16.67
2018-04-18T07:36:46.708Z,16.81
2018-04-18T07:39:12.696Z,17.02
2018-04-18T07:41:38.574Z,17.30
2018-04-18T07:44:04.565Z,17.36
2018-04-18T07:46:30.427Z,17.45
2018-04-18T07:48:56.319Z,17.76
2018-04-18T07:51:22.287Z,17.79
2018-04-18T07:53:48.172Z,17.99
2018-04-18T07:56:14.099Z,18.18
2018-04-18T07:58:40.024Z,18.42
2018-04-18T08:01:05.897Z,18.73
2018-04-18T08:03:31.872Z,18.83
2018-04-18T08:05:57.776Z,19.01
2018-04-18T08:08:23.710Z,19.08
2018-04-18T08:10:49.593Z,19.41
2018-04-18T08:13:15.504Z,19.50
2018-04-18T08:15:41.463Z,19.47
2018-04-18T08:18:07.363Z,19.76
2018-04-18T08:20:33.320Z,19.88
2018-04-18T08:22:59.227Z,19.86
2018-04-18T08:25:25.094Z,19.79
2018-04-18T08:27:55.921Z,19.98
2018-04-18T08:30:21.775Z,20.34
2018-04-18T08:32:47.714Z,20.58
2018-04-18T08:35:13.707Z,20.86
2018-04-18T08:37:39.600Z,21.19
2018-04-18T08:40:05.539Z,20.97
2018-04-18T08:42:32.513Z,21.24
2018-04-18T08:44:58.441Z,21.32
2018-04-18T08:47:24.443Z,21.34
2018-04-18T08:49:50.361Z,21.25
2018-04-18T08:52:16.362Z,21.19
2018-04-18T08:54:42.317Z,21.11
2018-04-18T08:57:08.670Z,21.46
2018-04-18T08:59:34.532Z,21.37
2018-04-18T09:02:00.436Z,21.71
2018-04-18T09:04:26.531Z,21.69
2018-04-18T09:06:52.420Z,21.83
2018-04-18T09:09:18.331Z,21.90
2018-04-18T09:11:44.244Z,22.18
2018-04-18T09:14:11.115Z,22.58
2018-04-18T09:16:37.075Z,22.75
2018-04-18T09:19:03.013Z,23.04
2018-04-18T09:21:28.923Z,23.03
2018-04-18T09:23:54.791Z,23.26
2018-04-18T09:26:21.096Z,23.12
2018-04-18T09:28:47.059Z,23.35
2018-04-18T09:31:12.931Z,23.29
2018-04-18T09:33:38.899Z,23.48
2018-04-18T09:36:04.803Z,23.74
2018-04-18T09:38:30.680Z,24.10
2018-04-18T09:40:56.691Z,24.02
2018-04-18T09:43:22.564Z,23.69
2018-04-18T09:45:48.499Z,24.24
2018-04-18T09:48:14.416Z,24.40
2018-04-18T09:50:40.299Z,24.42
2018-04-18T09:53:06.276Z,24.61
2018-04-18T09:55:32.597Z,25.19
2018-04-18T09:57:58.514Z,24.73
2018-04-18T10:00:30.447Z,24.76
2018-04-18T10:03:02.413Z,25.49
2018-04-18T10:05:28.423Z,25.40
2018-04-18T10:07:54.284Z,25.97
2018-04-18T10:10:20.277Z,26.17
2018-04-18T10:12:46.140Z,26.57
2018-04-18T10:15:13.024Z,26.16
2018-04-18T10:17:39.048Z,26.36
2018-04-18T10:20:04.915Z,26.31
2018-04-18T10:22:30.857Z,26.44
2018-04-18T10:24:56.786Z,26.17
2018-04-18T10:27:22.678Z,26.40
2018-04-18T10:29:48.658Z,26.37
2018-04-18T10:32:14.569Z,26.20
2018-04-18T10:34:40.495Z,26.45
2018-04-18T10:37:06.427Z,26.60
2018-04-18T10:39:32.380Z,26.91
2018-04-18T10:41:58.348Z,27.03
2018-04-18T10:44:24.217Z,26.37
2018-04-18T10:46:50.192Z,27.40
2018-04-18T10:49:16.057Z,27.64
2018-04-18T10:51:41.931Z,27.68
2018-04-18T10:54:07.961Z,27.63
2018-04-18T10:56:33.863Z,26.97
2018-04-18T10:58:59.808Z,27.50
2018-04-18T11:01:25.719Z,27.84
2018-04-18T11:03:51.582Z,28.31
2018-04-18T11:06:17.539Z,28.17
2018-04-18T11:08:43.467Z,28.16
2018-04-18T11:11:09.370Z,28.03
2018-04-18T11:13:35.336Z,28.10
2018-04-18T11:16:01.246Z,28.14
2018-04-18T11:18:27.195Z,28.16
2018-04-18T11:20:53.074Z,27.75
2018-04-18T11:23:19.033Z,27.69
2018-04-18T11:25:44.944Z,28.10
2018-04-18T11:28:10.819Z,28.33
2018-04-18T11:30:37.189Z,28.35
2018-04-18T11:33:03.052Z,28.30
2018-04-18T11:35:28.970Z,28.41
2018-04-18T11:37:54.884Z,28.37
2018-04-18T11:40:20.759Z,28.91
2018-04-18T11:42:46.723Z,28.49
2018-04-18T11:45:12.656Z,28.07
2018-04-18T11:47:38.567Z,28.27
2018-04-18T11:50:04.451Z,27.92
2018-04-18T11:52:30.381Z,27.79
2018-04-18T11:54:56.348Z,27.61
2018-04-18T11:57:22.212Z,27.74
2018-04-18T11:59:48.462Z,26.93
2018-04-18T12:02:15.468Z,26.78
2018-04-18T12:04:41.330Z,26.90
2018-04-18T12:07:07.335Z,26.72
2018-04-18T12:09:33.220Z,26.27
2018-04-18T12:11:59.159Z,26.56
2018-04-18T12:14:25.066Z,26.60
2018-04-18T12:16:51.000Z,26.60
2018-04-18T12:19:16.961Z,26.50
2018-04-18T12:21:42.886Z,26.46
2018-04-18T12:24:08.795Z,25.83
2018-04-18T12:26:34.672Z,25.45
2018-04-18T12:29:00.591Z,25.41
2018-04-18T12:31:26.559Z,25.36
2018-04-18T12:33:52.439Z,25.41
2018-04-18T12:36:25.648Z,25.22
2018-04-18T12:38:51.522Z,25.34
2018-04-18T12:41:17.404Z,25.27
2018-04-18T12:43:43.742Z,25.29
2018-04-18T12:46:09.682Z,24.89
2018-04-18T12:48:35.602Z,24.89
2018-04-18T12:51:01.517Z,25.07
2018-04-18T12:53:27.411Z,25.15
2018-04-18T12:55:53.371Z,25.12
2018-04-18T12:58:19.288Z,24.88
2018-04-18T13:00:45.257Z,24.92
2018-04-18T13:03:25.523Z,25.14
2018-04-18T13:05:51.379Z,24.99
2018-04-18T13:08:17.352Z,24.99
2018-04-18T13:10:43.360Z,24.83
2018-04-18T13:13:09.309Z,24.95
2018-04-18T13:15:35.179Z,25.06
2018-04-18T13:18:02.881Z,25.12
2018-04-18T13:20:28.755Z,25.14
2018-04-18T13:22:54.656Z,25.02
2018-04-18T13:25:20.670Z,25.04
2018-04-18T13:27:46.520Z,25.04
2018-04-18T13:30:12.425Z,24.93
2018-04-18T13:32:38.729Z,25.07
2018-04-18T13:35:04.596Z,25.20
2018-04-18T13:37:30.511Z,25.14
2018-04-18T13:39:56.603Z,25.21
2018-04-18T13:42:22.487Z,25.32
2018-04-18T13:44:48.372Z,25.17
2018-04-18T13:47:14.300Z,25.27
2018-04-18T13:49:40.164Z,25.21
2018-04-18T13:52:06.023Z,25.22
2018-04-18T13:54:31.932Z,25.23
2018-04-18T13:56:57.808Z,25.21
2018-04-18T13:59:23.717Z,25.31
2018-04-18T14:01:49.935Z,25.37
2018-04-18T14:04:15.811Z,25.47
2018-04-18T14:06:41.692Z,25.62
2018-04-18T14:09:07.748Z,25.50
2018-04-18T14:11:33.653Z,25.47
2018-04-18T14:13:59.599Z,25.45
2018-04-18T14:16:25.530Z,25.43
2018-04-18T14:18:51.383Z,25.21
2018-04-18T14:21:17.361Z,25.34
2018-04-18T14:23:43.257Z,25.35
2018-04-18T14:26:09.128Z,25.41
2018-04-18T14:28:34.992Z,25.58
2018-04-18T14:31:00.921Z,25.59
2018-04-18T14:33:26.887Z,25.57
2018-04-18T14:35:52.754Z,25.45
2018-04-18T14:38:18.666Z,25.56
2018-04-18T14:40:44.536Z,25.53
2018-04-18T14:43:10.442Z,25.50
2018-04-18T14:45:36.470Z,25.34
2018-04-18T14:48:02.347Z,25.48
2018-04-18T14:50:28.213Z,25.63
2018-04-18T14:52:54.136Z,25.71
2018-04-18T14:55:20.005Z,25.54
2018-04-18T14:57:45.991Z,25.57
2018-04-18T15:00:11.909Z,25.41
2018-04-18T15:02:37.801Z,25.38
2018-04-18T15:05:03.688Z,25.41
2018-04-18T15:07:29.612Z,25.39
2018-04-18T15:09:55.555Z,25.21
2018-04-18T15:12:42.763Z,25.43
2018-04-18T15:15:08.642Z,25.28
2018-04-18T15:17:34.547Z,25.46
2018-04-18T15:20:00.539Z,25.34
2018-04-18T15:22:26.407Z,25.43
2018-04-18T15:24:52.300Z,25.23
2018-04-18T15:27:18.265Z,25.40
2018-04-18T15:29:44.124Z,25.31
2018-04-18T15:32:10.105Z,25.22
2018-04-18T15:34:36.051Z,25.28
2018-04-18T15:37:01.920Z,25.20
2018-04-18T15:39:27.792Z,25.18
2018-04-18T15:41:53.748Z,25.25
2018-04-18T15:44:19.721Z,24.95
2018-04-18T15:46:45.611Z,24.98
2018-04-18T15:49:11.523Z,25.07
2018-04-18T15:51:37.392Z,24.91
2018-04-18T15:54:03.281Z,25.03
2018-04-18T15:56:29.305Z,24.87
2018-04-18T15:58:55.175Z,24.94
2018-04-18T16:01:21.069Z,24.78
2018-04-18T16:03:46.983Z,24.69
2018-04-18T16:06:12.863Z,24.81
2018-04-18T16:08:38.840Z,24.67
2018-04-18T16:11:04.767Z,24.62
2018-04-18T16:13:30.628Z,24.49
2018-04-18T16:15:56.507Z,24.52
2018-04-18T16:18:22.460Z,24.52
2018-04-18T16:20:48.395Z,24.36
2018-04-18T16:23:14.279Z,24.21
2018-04-18T16:25:40.217Z,24.23
2018-04-18T16:28:06.087Z,24.08
2018-04-18T16:30:41.565Z,24.20
2018-04-18T16:33:07.560Z,24.12
2018-04-18T16:35:33.431Z,24.04
2018-04-18T16:37:59.364Z,23.90
2018-04-18T16:40:25.348Z,23.76
2018-04-18T16:42:51.227Z,23.52
2018-04-18T16:45:17.545Z,23.34
2018-04-18T16:47:43.412Z,23.27
2018-04-18T16:50:09.373Z,23.27
2018-04-18T16:52:35.283Z,23.05
2018-04-18T16:55:01.148Z,23.04
2018-04-18T16:57:28.119Z,22.76
2018-04-18T16:59:54.055Z,22.57
2018-04-18T17:02:19.916Z,22.34
2018-04-18T17:04:45.778Z,22.15
2018-04-18T17:07:11.719Z,21.94
2018-04-18T17:09:37.688Z,21.74
2018-04-18T17:12:03.572Z,21.87
2018-04-18T17:14:29.681Z,21.63
2018-04-18T17:16:55.546Z,21.59
2018-04-18T17:19:21.440Z,21.59
2018-04-18T17:21:47.472Z,21.56
2018-04-18T17:24:13.347Z,21.43
2018-04-18T17:26:39.228Z,21.25
2018-04-18T17:29:05.136Z,20.91
2018-04-18T17:31:31.016Z,20.82
2018-04-18T17:33:57.081Z,20.59
2018-04-18T17:36:22.957Z,20.27
2018-04-18T17:38:48.848Z,20.19
2018-04-18T17:41:14.711Z,20.02
2018-04-18T17:43:40.632Z,19.86
2018-04-18T17:46:06.628Z,19.71
2018-04-18T17:48:32.488Z,19.43
2018-04-18T17:50:58.740Z,19.30
2018-04-18T17:53:24.616Z,19.16
2018-04-18T17:55:50.491Z,18.99
2018-04-18T17:58:17.313Z,18.83
2018-04-18T18:00:43.187Z,18.68
2018-04-18T18:03:11.153Z,18.51
2018-04-18T18:05:37.088Z,18.36
2018-04-18T18:08:02.975Z,18.21
2018-04-18T18:10:28.944Z,18.07
2018-04-18T18:12:55.116Z,17.95
2018-04-18T18:15:21.066Z,17.80
2018-04-18T18:17:46.965Z,17.66
2018-04-18T18:20:12.920Z,17.53
2018-04-18T18:22:38.980Z,17.41
2018-04-18T18:25:04.876Z,17.31
2018-04-18T18:27:30.800Z,17.17
2018-04-18T18:29:56.669Z,17.06
2018-04-18T18:32:22.551Z,16.95
2018-04-18T18:34:48.549Z,16.83
2018-04-18T18:37:14.405Z,16.73
2018-04-18T18:39:40.286Z,16.63
2018-04-18T18:42:06.197Z,16.54
2018-04-18T18:44:32.088Z,16.45
2018-04-18T18:46:58.049Z,16.37
2018-04-18T18:49:24.276Z,16.27
2018-04-18T18:51:50.145Z,16.20
2018-04-18T18:54:16.049Z,16.11
2018-04-18T18:56:42.866Z,16.06
2018-04-18T18:59:08.815Z,15.97
2018-04-18T19:01:34.698Z,15.89
2018-04-18T19:04:01.675Z,15.83
2018-04-18T19:06:27.603Z,15.78
2018-04-18T19:08:53.475Z,15.71
2018-04-18T19:11:19.528Z,15.65
2018-04-18T19:13:45.401Z,15.57
2018-04-18T19:16:11.299Z,15.51
2018-04-18T19:18:37.551Z,15.46
2018-04-18T19:21:03.428Z,15.39
2018-04-18T19:23:29.434Z,15.35
2018-04-18T19:25:55.423Z,15.29
2018-04-18T19:28:21.339Z,15.24
2018-04-18T19:30:49.191Z,15.20
2018-04-18T19:33:15.103Z,15.13
2018-04-18T19:35:41.965Z,15.07
2018-04-18T19:38:08.583Z,14.96
2018-04-18T19:40:34.559Z,14.94
2018-04-18T19:43:00.438Z,14.89
2018-04-18T19:45:27.134Z,14.77
2018-04-18T19:47:53.555Z,14.78
2018-04-18T19:50:19.527Z,14.71
2018-04-18T19:52:45.395Z,14.64
2018-04-18T19:55:11.349Z,14.59
2018-04-18T19:57:37.212Z,14.52
2018-04-18T20:00:03.212Z,14.48
2018-04-18T20:02:29.136Z,14.47
2018-04-18T20:04:55.011Z,14.42
2018-04-18T20:07:20.888Z,14.43
2018-04-18T20:09:46.823Z,14.45
2018-04-18T20:12:12.771Z,14.38
2018-04-18T20:14:38.645Z,14.34
2018-04-18T20:17:04.709Z,14.31
2018-04-18T20:19:30.598Z,14.26
2018-04-18T20:21:56.467Z,14.20
2018-04-18T20:24:22.518Z,14.17
2018-04-18T20:26:48.389Z,14.14
2018-04-18T20:29:14.251Z,14.07
2018-04-18T20:31:41.127Z,13.97
2018-04-18T20:34:07.004Z,13.93
2018-04-18T20:36:34.940Z,13.88
2018-04-18T20:39:00.886Z,13.86
2018-04-18T20:41:26.789Z,13.82
2018-04-18T20:43:52.648Z,13.76
2018-04-18T20:46:18.558Z,13.73
2018-04-18T20:48:44.514Z,13.73
2018-04-18T20:51:10.399Z,13.67
2018-04-18T20:53:36.364Z,13.62
2018-04-18T20:56:02.255Z,13.57
2018-04-18T20:58:28.127Z,13.53
2018-04-18T21:00:54.165Z,13.47
2018-04-18T21:03:21.149Z,13.43
2018-04-18T21:05:47.085Z,13.37
2018-04-18T21:08:13.052Z,13.32
2018-04-18T21:10:38.929Z,13.30
2018-04-18T21:13:04.911Z,13.24
2018-04-18T21:15:32.500Z,13.18
2018-04-18T21:17:58.418Z,13.12
2018-04-18T21:20:24.306Z,13.05
2018-04-18T21:22:50.524Z,13.08
2018-04-18T21:25:16.479Z,13.06
2018-04-18T21:27:42.375Z,13.01
2018-04-18T21:30:08.281Z,12.95
2018-04-18T21:32:34.187Z,12.90
2018-04-18T21:35:00.054Z,12.87
2018-04-18T21:37:26.092Z,12.82
2018-04-18T21:39:52.011Z,12.78
2018-04-18T21:42:18.986Z,12.73
2018-04-18T21:44:44.913Z,12.69
2018-04-18T21:47:11.411Z,12.66
2018-04-18T21:49:37.639Z,12.63
2018-04-18T21:52:03.772Z,12.59
2018-04-18T21:54:29.919Z,12.54
2018-04-18T21:56:55.783Z,12.49
2018-04-18T21:59:22.079Z,12.44
2018-04-18T22:01:48.062Z,12.39
2018-04-18T22:04:14.235Z,12.35
2018-04-18T22:06:40.504Z,12.29
2018-04-18T22:09:06.893Z,12.30
2018-04-18T22:11:33.196Z,12.27
2018-04-18T22:14:00.872Z,12.20
2018-04-18T22:16:26.756Z,12.20
2018-04-18T22:18:52.611Z,12.16
2018-04-18T22:21:18.522Z,11.88
2018-04-18T22:23:44.560Z,11.83
2018-04-18T22:26:10.729Z,11.97
2018-04-18T22:28:37.470Z,11.96
2018-04-18T22:31:03.502Z,11.99
2018-04-18T22:33:29.767Z,12.01
2018-04-18T22:35:55.795Z,12.01
2018-04-18T22:38:22.145Z,12.05
2018-04-18T22:40:48.021Z,12.07
2018-04-18T22:43:15.403Z,12.07
2018-04-18T22:45:41.295Z,12.01
2018-04-18T22:48:07.167Z,11.93
2018-04-18T22:50:33.968Z,11.84
2018-04-18T22:52:59.849Z,11.80
2018-04-18T22:55:25.749Z,11.76
2018-04-18T22:57:51.700Z,11.74
2018-04-18T23:00:20.463Z,11.70
2018-04-18T23:02:46.424Z,11.67
2018-04-18T23:05:12.348Z,11.64
2018-04-18T23:07:38.252Z,11.61
2018-04-18T23:10:04.160Z,11.58
2018-04-18T23:12:30.100Z,11.52
2018-04-18T23:14:56.065Z,11.51
2018-04-18T23:17:21.951Z,11.50
2018-04-18T23:19:47.888Z,11.49
2018-04-18T23:22:13.770Z,11.46
2018-04-18T23:24:39.686Z,11.44
2018-04-18T23:27:05.720Z,11.42
2018-04-18T23:29:31.595Z,11.41
2018-04-18T23:31:57.459Z,11.46
2018-04-18T23:34:23.760Z,11.47
2018-04-18T23:36:49.648Z,11.39
2018-04-18T23:39:15.612Z,11.35
2018-04-18T23:41:41.590Z,11.31
2018-04-18T23:44:08.480Z,11.28
2018-04-18T23:46:34.347Z,11.26
2018-04-18T23:49:00.962Z,11.25
2018-04-18T23:51:26.948Z,11.19
2018-04-18T23:53:52.877Z,11.14
2018-04-18T23:56:18.803Z,11.07
2018-04-18T23:58:44.706Z,11.07
